Oxelosund, Sweden
Current Conditions -  °F | °C
As of 10:20 AM on Wednesday 22 Oct 2014 (Local Time) from ESKN Reporting Station
Broken Clouds Broken Clouds  
Wind Chill:   Ceiling: 2400
Heat Index:   Visibility: 6mi
Dew Point:   Wind: 13mph
Humidity: 87%   Direction: 60°ENE
Pressure: 29.94"   Gusts: NA
Location:  58.67°N, 17.1°E
Report Text: ESKN 220820Z 06011KT 040V110 9999 SCT019 BKN024 04/02 Q1014
Loading
Personal Weather Stations






























Interactive Weather Map
Tropical Storm Tracking
New forecast layout! Learn more

10-Day Weather Forecast

Advertisements
Track Severe Weather on mobile